Paw Paw, IL (61353)

12:02 PM CDT on April 25, 2015 (GMT -0500)
Welland and Angling Roads | | Change Station
CLOSE
Current Station
Personal Weather Station
Location: Earlville, IL
Elevation: 833 ft
Nearby Weather Stations

Elev 833 ft 41.63 °N, 89.02 °W | Updated 33 seconds ago

Rain
Rain
44.8 °F
Feels Like 40 °F
N
9.8
Wind Variable Wind from ENE
Gusts 16.8 mph

Today
High -- | Low -- °F
--% Chance of Precip.
Yesterday
High -- | Low -- °F
Precip. -- in
6:01 AM 7:47 PM
Waxing Crescent, 47% visible
Pressure 29.78 in
Visibility 3.0 miles
Clouds Overcast 800 ft
Windchill 40 °F
Dew Point 44 °F
Humidity 99%
Rainfall 1.24 in
Snow Depth Not available.
UV 3 out of 12
Pollen 9.50 out of 12
Air Quality Not available.
Flu Activity Regional
METAR KRPJ 251655Z AUTO 07012KT 3SM RA OVC008 06/05 A2978 RMK AO2 P0008 T00580050

More Conditions Fewer Conditions

Pressure 29.78 in
Visibility 3.0 miles
Clouds Overcast 800 ft
Windchill 40 °F
Dew Point 44 °F
Humidity 99%
Rainfall 1.24 in
Snow Depth Not available.
UV 3 out of 12
Pollen 9.50 out of 12
Air Quality Not available.
Flu Activity Regional
METAR KRPJ 251655Z AUTO 07012KT 3SM RA OVC008 06/05 A2978 RMK AO2 P0008 T00580050

More Conditions Fewer Conditions

10-Day Weather Forecast

Almanac

Astronomy

Apr. 25, 2015 Rise Set
Actual Time
Civil Twilight
Nautical Twilight
Astronomical Twilight
Moon
Length of Visible Light
Length of Day
Tomorrow will be .
, % of the Moon is Illuminated

Today's Extremes

State Highs State Lows

Community

WunderPhotos

Upload Photos

1,816,743 photos uploaded!

WunderBlogs® & News

Nearby

Air Quality

  Air Quality AQ Index Pollutant
Not available.

Snow Depth

Station Depth Elevation

Earthquake Activity

City Distance Mag. Time & Date
Minimum magnitude displayed is 2.5.

Coastal Water Temperatures

Place Temperature

Stations

Nearby Weather Stations

Station Location Temp. Windchill Dew Point Humidity Wind Precip. Elev Updated Type